Time;durP1;ratioP1;P1;durP2;ratioP2;P2;SDS_P1;SDS_P2;PMS_P1;PMS_P2;Temp;Humidity;BMP_temperature;BMP_pressure;BME280_temperature;BME280_humidity;BME280_pressure;Samples;Min_cycle;Max_cycle;Signal;HPM_P1;HPM_P2
2021/10/23 00:01:02;;;;;;;5.30;2.13;;;10.40;95.00;;;;;;5003704;28;20439;-88
2021/10/23 00:03:29;;;;;;;6.00;2.27;;;10.40;95.20;;;;;;5006164;28;20475;-88
2021/10/23 00:05:59;;;;;;;8.17;3.10;;;10.40;95.20;;;;;;5029283;28;20452;-88
2021/10/23 00:08:27;;;;;;;3.20;1.83;;;10.40;95.50;;;;;;5015789;28;20446;-88
2021/10/23 00:10:54;;;;;;;3.13;2.07;;;10.40;95.70;;;;;;5003317;28;20814;-88
2021/10/23 00:13:20;;;;;;;8.80;2.67;;;10.30;95.80;;;;;;5005768;28;21002;-88
2021/10/23 00:15:47;;;;;;;5.80;2.73;;;10.30;95.90;;;;;;5007301;28;20446;-87
2021/10/23 00:18:14;;;;;;;3.23;2.20;;;10.30;95.90;;;;;;5001932;28;20474;-88
2021/10/23 00:20:41;;;;;;;5.00;2.50;;;10.20;96.20;;;;;;5006380;28;20449;-88
2021/10/23 00:23:08;;;;;;;4.33;2.07;;;10.10;96.40;;;;;;5005396;28;20477;-88
2021/10/23 00:25:36;;;;;;;3.47;2.37;;;10.10;96.70;;;;;;5012446;28;20457;-87
2021/10/23 00:28:03;;;;;;;2.83;2.10;;;10.10;96.80;;;;;;5017753;28;20431;-88
2021/10/23 00:30:29;;;;;;;4.67;2.60;;;10.10;97.20;;;;;;5012175;28;20446;-88
2021/10/23 00:33:01;;;;;;;3.10;1.70;;;10.00;97.20;;;;;;5019582;28;20470;-88
2021/10/23 00:35:28;;;;;;;3.47;2.07;;;10.10;97.30;;;;;;5018686;28;20452;-87
2021/10/23 00:37:55;;;;;;;5.00;2.10;;;10.10;97.40;;;;;;5018629;28;20486;-89
2021/10/23 00:40:21;;;;;;;2.83;2.50;;;10.10;97.30;;;;;;5018491;28;21012;-89
2021/10/23 00:42:51;;;;;;;3.63;1.80;;;10.10;97.70;;;;;;5018662;28;20469;-88
2021/10/23 00:45:18;;;;;;;7.00;2.33;;;10.10;97.70;;;;;;5019258;28;20884;-88
2021/10/23 00:47:44;;;;;;;4.23;2.70;;;10.10;97.80;;;;;;5023366;28;20450;-88
2021/10/23 00:50:11;;;;;;;4.80;2.17;;;10.10;98.00;;;;;;5029434;28;20453;-88
2021/10/23 00:52:38;;;;;;;4.03;2.57;;;10.10;98.10;;;;;;5019879;28;20819;-88
2021/10/23 00:55:08;;;;;;;7.20;2.33;;;10.10;98.30;;;;;;5024309;28;20460;-88
2021/10/23 00:57:35;;;;;;;7.20;2.23;;;10.10;98.30;;;;;;5029941;28;21090;-88
2021/10/23 01:00:04;;;;;;;3.67;2.10;;;10.10;98.50;;;;;;5025849;28;20453;-88
2021/10/23 01:02:31;;;;;;;8.27;2.83;;;10.10;98.70;;;;;;5023968;28;20700;-88
2021/10/23 01:04:58;;;;;;;5.47;2.40;;;10.10;99.00;;;;;;5018283;28;20450;-88
2021/10/23 01:07:25;;;;;;;4.13;2.70;;;10.10;99.00;;;;;;5017356;28;20461;-88
2021/10/23 01:09:52;;;;;;;5.87;2.80;;;10.10;99.10;;;;;;5017509;28;20531;-86
2021/10/23 01:12:19;;;;;;;3.40;2.20;;;10.20;99.20;;;;;;5018133;28;20474;-87
2021/10/23 01:14:46;;;;;;;4.23;2.60;;;10.10;99.30;;;;;;5024323;28;20446;-86
2021/10/23 01:17:20;;;;;;;5.17;2.27;;;10.10;99.40;;;;;;5018717;28;21082;-86
2021/10/23 01:19:50;;;;;;;8.17;2.27;;;10.20;99.40;;;;;;5017213;28;20448;-87
2021/10/23 01:22:17;;;;;;;8.40;2.40;;;10.20;99.50;;;;;;5026068;28;20473;-86
2021/10/23 01:24:44;;;;;;;2.43;2.00;;;10.20;99.20;;;;;;5017006;28;20836;-87
2021/10/23 01:27:11;;;;;;;3.70;2.07;;;10.10;99.20;;;;;;5028917;28;20438;-85
2021/10/23 01:29:37;;;;;;;6.07;2.50;;;10.10;99.80;;;;;;5017425;28;20927;-86
2021/10/23 01:32:04;;;;;;;3.93;2.47;;;10.10;99.70;;;;;;5019045;28;20466;-87
2021/10/23 01:34:31;;;;;;;6.07;2.80;;;10.10;99.80;;;;;;5026642;28;20438;-87
2021/10/23 01:37:00;;;;;;;8.03;3.70;;;10.10;99.80;;;;;;5022070;28;20449;-88
2021/10/23 01:39:29;;;;;;;8.60;3.00;;;10.10;99.90;;;;;;5016795;28;20450;-87
2021/10/23 01:41:56;;;;;;;3.93;2.40;;;10.10;99.90;;;;;;5016303;28;20461;-88
2021/10/23 01:44:26;;;;;;;7.20;3.20;;;10.10;99.90;;;;;;5016168;28;20947;-87
2021/10/23 01:46:53;;;;;;;8.77;3.67;;;10.10;99.90;;;;;;5024910;28;20460;-86
2021/10/23 01:49:26;;;;;;;5.13;2.67;;;10.10;99.90;;;;;;5038772;28;20449;-87
2021/10/23 01:51:53;;;;;;;5.63;3.63;;;10.10;99.90;;;;;;5020429;28;20454;-87
2021/10/23 01:54:21;;;;;;;6.60;2.60;;;10.10;99.90;;;;;;5019477;28;20450;-87
2021/10/23 01:56:48;;;;;;;4.77;4.00;;;10.00;99.90;;;;;;5020624;28;20831;-88
2021/10/23 01:59:15;;;;;;;7.27;3.83;;;9.90;99.90;;;;;;5034959;28;20441;-88
2021/10/23 02:01:42;;;;;;;6.90;3.40;;;9.80;99.90;;;;;;5019784;28;20457;-88
2021/10/23 02:04:09;;;;;;;7.30;3.90;;;9.70;99.90;;;;;;5021060;28;20818;-87
2021/10/23 02:06:36;;;;;;;8.07;4.00;;;9.70;99.90;;;;;;5022178;28;20813;-88
2021/10/23 02:09:03;;;;;;;7.10;5.17;;;9.70;99.90;;;;;;5027820;28;20445;-88
2021/10/23 02:11:31;;;;;;;8.33;4.17;;;9.60;99.90;;;;;;5030378;28;20454;-88
2021/10/23 02:13:58;;;;;;;11.30;4.13;;;9.50;99.90;;;;;;5019793;28;20473;-88
2021/10/23 02:16:25;;;;;;;7.30;4.03;;;9.50;99.90;;;;;;5017498;28;20458;-88
2021/10/23 02:18:52;;;;;;;8.97;3.90;;;9.50;99.90;;;;;;5016816;28;20489;-88
2021/10/23 02:21:19;;;;;;;5.03;2.97;;;9.50;99.90;;;;;;5017255;28;20438;-88
2021/10/23 02:23:46;;;;;;;6.63;3.03;;;9.50;99.90;;;;;;5017824;28;20466;-88
2021/10/23 02:26:13;;;;;;;6.83;3.50;;;9.60;99.90;;;;;;5022978;28;20450;-88
2021/10/23 02:28:41;;;;;;;7.27;3.70;;;9.60;99.90;;;;;;5020030;28;20449;-89
2021/10/23 02:31:07;;;;;;;5.90;3.40;;;9.50;99.90;;;;;;5018063;28;20454;-89
2021/10/23 02:33:34;;;;;;;6.90;3.43;;;9.50;99.90;;;;;;5016430;28;20470;-88
2021/10/23 02:36:01;;;;;;;6.53;3.23;;;9.60;99.90;;;;;;5016237;28;20458;-87
2021/10/23 02:38:28;;;;;;;4.87;2.90;;;9.60;99.90;;;;;;5015704;28;20489;-88
2021/10/23 02:40:56;;;;;;;5.30;3.10;;;9.50;99.90;;;;;;5016153;28;20446;-88
2021/10/23 02:43:23;;;;;;;6.87;3.40;;;9.50;99.90;;;;;;5017026;28;20470;-88
2021/10/23 02:45:51;;;;;;;8.97;4.60;;;9.40;99.90;;;;;;5016140;28;20446;-88
2021/10/23 02:48:18;;;;;;;5.10;3.43;;;9.40;99.90;;;;;;5024263;28;20453;-88
2021/10/23 02:50:45;;;;;;;4.20;2.67;;;9.40;99.90;;;;;;5016434;28;20457;-88
2021/10/23 02:53:12;;;;;;;6.93;3.17;;;9.30;99.90;;;;;;5035964;28;20505;-87
2021/10/23 02:55:39;;;;;;;5.27;3.70;;;9.30;99.90;;;;;;5035878;28;20450;-88
2021/10/23 02:58:06;;;;;;;7.60;3.30;;;9.30;99.90;;;;;;5030228;28;20481;-87
2021/10/23 03:00:33;;;;;;;8.70;3.47;;;9.30;99.90;;;;;;5034143;28;20477;-88
2021/10/23 03:03:01;;;;;;;9.90;3.93;;;9.30;99.90;;;;;;5035911;28;20470;-87
2021/10/23 03:05:28;;;;;;;6.80;3.60;;;9.30;99.90;;;;;;5020657;28;20450;-88
2021/10/23 03:07:54;;;;;;;8.47;2.93;;;9.40;99.90;;;;;;5015686;28;20450;-88
2021/10/23 03:10:21;;;;;;;3.97;3.50;;;9.50;99.90;;;;;;5014789;28;20461;-88
2021/10/23 03:12:48;;;;;;;6.67;3.47;;;9.50;99.90;;;;;;5015132;28;20466;-88
2021/10/23 03:15:15;;;;;;;7.00;3.13;;;9.60;99.90;;;;;;5014299;28;20450;-88
2021/10/23 03:17:41;;;;;;;7.87;4.60;;;9.60;99.90;;;;;;5014249;28;20482;-88
2021/10/23 03:20:11;;;;;;;7.57;3.47;;;9.60;99.90;;;;;;5014963;28;20454;-88
2021/10/23 03:22:37;;;;;;;8.90;3.87;;;9.60;99.90;;;;;;5014345;28;20465;-88
2021/10/23 03:25:05;;;;;;;5.90;4.30;;;9.60;99.90;;;;;;5015948;28;20829;-85
2021/10/23 03:27:32;;;;;;;7.57;3.30;;;9.60;99.90;;;;;;5026881;28;20463;-88
2021/10/23 03:29:58;;;;;;;8.23;4.57;;;9.60;99.90;;;;;;5019369;28;20437;-86
2021/10/23 03:32:25;;;;;;;7.17;4.20;;;9.60;99.90;;;;;;5038389;28;20570;-86
2021/10/23 03:34:54;;;;;;;7.87;3.87;;;9.60;99.90;;;;;;5038191;28;20415;-85
2021/10/23 03:37:22;;;;;;;5.07;3.30;;;9.70;99.90;;;;;;5037050;28;20442;-86
2021/10/23 03:39:49;;;;;;;11.30;4.20;;;9.70;99.90;;;;;;5036453;28;20446;-88
2021/10/23 03:42:16;;;;;;;8.20;3.93;;;9.70;99.90;;;;;;5035857;28;20474;-87
2021/10/23 03:44:43;;;;;;;4.87;3.33;;;9.70;99.90;;;;;;5027143;28;20457;-88
2021/10/23 03:47:10;;;;;;;5.70;3.40;;;9.70;99.90;;;;;;5022100;28;20450;-88
2021/10/23 03:49:37;;;;;;;4.67;3.40;;;9.70;99.90;;;;;;5037092;28;20532;-87
2021/10/23 03:52:04;;;;;;;5.50;3.80;;;9.70;99.90;;;;;;5036159;28;20453;-88
2021/10/23 03:54:32;;;;;;;6.43;4.87;;;9.70;99.90;;;;;;5035841;28;20446;-88
2021/10/23 03:56:59;;;;;;;7.70;3.67;;;9.70;99.90;;;;;;5029063;28;20456;-87
2021/10/23 03:59:26;;;;;;;6.60;3.80;;;9.70;99.90;;;;;;5019757;28;20485;-88
2021/10/23 04:01:53;;;;;;;7.80;3.07;;;9.70;99.90;;;;;;5020427;28;20438;-88
2021/10/23 04:04:20;;;;;;;4.80;3.80;;;9.70;99.90;;;;;;5023844;28;20507;-88
2021/10/23 04:06:47;;;;;;;6.27;3.60;;;9.60;99.90;;;;;;5027038;28;20450;-87
2021/10/23 04:09:13;;;;;;;7.00;3.33;;;9.60;99.90;;;;;;5020960;28;20442;-87
2021/10/23 04:11:42;;;;;;;5.33;3.40;;;9.60;99.90;;;;;;5024133;28;20438;-87
2021/10/23 04:14:09;;;;;;;6.67;3.40;;;9.50;99.90;;;;;;5025794;28;20462;-88
2021/10/23 04:16:35;;;;;;;7.50;3.80;;;9.50;99.90;;;;;;5032366;28;20438;-88
2021/10/23 04:19:02;;;;;;;3.80;3.33;;;9.50;99.90;;;;;;5027004;28;20487;-88
2021/10/23 04:21:29;;;;;;;6.27;3.30;;;9.50;99.90;;;;;;5019589;28;20445;-87
2021/10/23 04:23:56;;;;;;;7.90;4.07;;;9.40;99.90;;;;;;5020111;28;20824;-88
2021/10/23 04:26:23;;;;;;;9.07;3.57;;;9.40;99.90;;;;;;5020048;28;20457;-88
2021/10/23 04:28:52;;;;;;;7.00;3.87;;;9.40;99.90;;;;;;5019200;28;20442;-88
2021/10/23 04:31:18;;;;;;;6.70;4.03;;;9.40;99.90;;;;;;5018377;28;20450;-87
2021/10/23 04:33:45;;;;;;;4.57;2.70;;;9.50;99.90;;;;;;5018270;28;20466;-87
2021/10/23 04:36:12;;;;;;;7.23;3.63;;;9.40;99.90;;;;;;5018604;28;20450;-88
2021/10/23 04:38:39;;;;;;;8.07;3.60;;;9.40;99.90;;;;;;5017940;28;20475;-88
2021/10/23 04:41:06;;;;;;;7.27;3.67;;;9.40;99.90;;;;;;5017439;28;20458;-88
2021/10/23 04:43:33;;;;;;;9.57;3.90;;;9.40;99.90;;;;;;5017383;28;20481;-87
2021/10/23 04:46:01;;;;;;;9.80;4.40;;;9.40;99.90;;;;;;5025092;28;20449;-87
2021/10/23 04:48:28;;;;;;;8.57;3.97;;;9.50;99.90;;;;;;5022622;28;20805;-88
2021/10/23 04:50:54;;;;;;;5.03;3.63;;;9.50;99.90;;;;;;5017988;28;20954;-88
2021/10/23 04:53:21;;;;;;;11.40;4.80;;;9.40;99.90;;;;;;5018241;28;20466;-87
2021/10/23 04:55:48;;;;;;;9.77;4.03;;;9.40;99.90;;;;;;5033693;28;20434;-87
2021/10/23 04:58:15;;;;;;;7.87;3.57;;;9.50;99.90;;;;;;5023256;28;21002;-87
2021/10/23 05:00:41;;;;;;;5.23;3.30;;;9.40;99.90;;;;;;5030319;28;20445;-88
2021/10/23 05:03:09;;;;;;;7.80;3.50;;;9.40;99.90;;;;;;5018189;28;20474;-88
2021/10/23 05:05:37;;;;;;;9.23;4.10;;;9.40;99.90;;;;;;5019507;28;20458;-87
2021/10/23 05:08:04;;;;;;;6.87;3.53;;;9.40;99.90;;;;;;5018767;28;20450;-87
2021/10/23 05:10:31;;;;;;;8.50;3.60;;;9.40;99.90;;;;;;5016956;28;20450;-88
2021/10/23 05:12:58;;;;;;;7.87;3.80;;;9.30;99.90;;;;;;5018985;28;20481;-88
2021/10/23 05:15:24;;;;;;;6.03;3.80;;;9.40;99.90;;;;;;5017306;28;20457;-88
2021/10/23 05:17:51;;;;;;;6.73;3.23;;;9.40;99.90;;;;;;5037325;28;20427;-87
2021/10/23 05:20:19;;;;;;;9.33;4.37;;;9.40;99.90;;;;;;5031692;28;20446;-87
2021/10/23 05:22:46;;;;;;;7.90;3.67;;;9.40;99.90;;;;;;5033311;28;20482;-88
2021/10/23 05:25:13;;;;;;;6.50;4.20;;;9.40;99.90;;;;;;5022910;28;20453;-88
2021/10/23 05:27:40;;;;;;;8.50;4.17;;;9.40;99.90;;;;;;5031182;28;20442;-87
2021/10/23 05:30:07;;;;;;;8.37;3.53;;;9.40;99.90;;;;;;5033836;28;20442;-88
2021/10/23 05:32:34;;;;;;;9.40;3.60;;;9.40;99.90;;;;;;5034571;28;20442;-87
2021/10/23 05:35:01;;;;;;;9.03;3.67;;;9.40;99.90;;;;;;5023876;28;20450;-88
2021/10/23 05:37:29;;;;;;;8.37;4.73;;;9.30;99.90;;;;;;5018209;28;20450;-86
2021/10/23 05:39:56;;;;;;;10.90;3.70;;;9.30;99.90;;;;;;5019850;28;20486;-87
2021/10/23 05:42:22;;;;;;;6.50;3.70;;;9.30;99.90;;;;;;5020606;28;20462;-87
2021/10/23 05:44:49;;;;;;;7.77;4.27;;;9.30;99.90;;;;;;5017149;28;20450;-88
2021/10/23 05:47:16;;;;;;;7.30;3.30;;;9.20;99.90;;;;;;5028385;28;20939;-87
2021/10/23 05:49:43;;;;;;;5.97;3.10;;;9.20;99.90;;;;;;5016430;28;20453;-88
2021/10/23 05:52:10;;;;;;;9.53;4.43;;;9.20;99.90;;;;;;5016631;28;20471;-87
2021/10/23 05:54:38;;;;;;;5.10;3.50;;;9.30;99.90;;;;;;5016314;28;20505;-87
2021/10/23 05:57:07;;;;;;;5.43;3.27;;;9.20;99.90;;;;;;5016601;28;20461;-87
2021/10/23 05:59:36;;;;;;;10.00;3.93;;;9.30;99.90;;;;;;5015700;28;20478;-87
2021/10/23 06:02:21;;;;;;;9.30;4.47;;;9.30;99.90;;;;;;5021236;28;20474;-87
2021/10/23 06:04:47;;;;;;;8.93;3.80;;;9.20;99.90;;;;;;5029650;28;20475;-87
2021/10/23 06:07:15;;;;;;;9.83;3.40;;;9.30;99.90;;;;;;5095132;23;20495;-93
2021/10/23 06:09:44;;;;;;;5.67;3.13;;;9.30;99.90;;;;;;5058931;28;20440;-93
2021/10/23 06:12:11;;;;;;;9.67;3.60;;;9.40;99.90;;;;;;5061056;28;20535;-93
2021/10/23 06:14:38;;;;;;;7.43;3.10;;;9.40;99.90;;;;;;5060760;28;20452;-93
2021/10/23 06:17:07;;;;;;;7.10;3.30;;;9.50;99.90;;;;;;5058627;28;20468;-94
2021/10/23 06:19:35;;;;;;;6.97;3.87;;;9.50;99.90;;;;;;5061213;28;20835;-93
2021/10/23 06:22:03;;;;;;;5.80;3.03;;;9.60;99.90;;;;;;5071632;28;20436;-93
2021/10/23 06:24:30;;;;;;;9.40;4.00;;;9.60;99.90;;;;;;5078156;28;20445;-94
2021/10/23 06:26:58;;;;;;;5.77;2.93;;;9.70;99.90;;;;;;5076731;28;20487;-92
2021/10/23 06:29:25;;;;;;;8.07;3.17;;;9.70;99.90;;;;;;5078472;28;20412;-94
2021/10/23 06:31:53;;;;;;;8.20;4.00;;;9.70;99.90;;;;;;5072784;28;20464;-93
2021/10/23 06:34:20;;;;;;;4.30;3.50;;;9.80;99.90;;;;;;5064799;28;20475;-94
2021/10/23 06:36:47;;;;;;;9.83;3.77;;;9.80;99.90;;;;;;5071552;28;20444;-94
2021/10/23 06:39:14;;;;;;;9.60;4.13;;;9.80;99.90;;;;;;5062327;28;20531;-94
2021/10/23 06:41:41;;;;;;;5.33;3.23;;;9.80;99.90;;;;;;5061601;28;20456;-94
2021/10/23 06:44:10;;;;;;;11.03;4.10;;;9.80;99.90;;;;;;5071255;28;20456;-94
2021/10/23 06:46:38;;;;;;;8.13;3.90;;;9.80;99.90;;;;;;5065030;28;20472;-94
2021/10/23 06:49:06;;;;;;;7.07;3.57;;;9.80;99.90;;;;;;5062269;28;20451;-94
2021/10/23 06:51:33;;;;;;;10.87;3.70;;;9.80;99.90;;;;;;5060124;28;20456;-94
2021/10/23 06:54:01;;;;;;;4.93;4.00;;;9.90;99.90;;;;;;5066266;28;20507;-94
2021/10/23 06:56:29;;;;;;;6.17;2.60;;;9.80;99.90;;;;;;5077969;28;20467;-94
2021/10/23 06:58:56;;;;;;;11.23;3.90;;;9.90;99.90;;;;;;5072751;28;20471;-94
2021/10/23 07:01:25;;;;;;;7.93;3.07;;;10.00;99.90;;;;;;5071494;28;20448;-94
2021/10/23 07:03:52;;;;;;;11.40;4.50;;;10.10;99.90;;;;;;5073830;28;20441;-94
2021/10/23 07:06:19;;;;;;;8.33;3.93;;;10.10;99.90;;;;;;5077282;28;20464;-94
2021/10/23 07:08:47;;;;;;;7.77;3.77;;;10.20;99.90;;;;;;5140112;23;20542;-93
2021/10/23 07:11:14;;;;;;;7.13;4.07;;;10.30;99.90;;;;;;5031940;28;20463;-94
2021/10/23 07:14:04;;;;;;;7.83;4.73;;;10.40;99.90;;;;;;5034664;28;20439;-93
2021/10/23 07:16:32;;;;;;;10.50;3.43;;;10.50;99.90;;;;;;5035515;28;20466;-94
2021/10/23 07:18:59;;;;;;;6.27;3.37;;;10.60;99.90;;;;;;5036599;28;20533;-95
2021/10/23 07:21:49;;;;;;;11.63;3.57;;;10.60;99.90;;;;;;5017013;28;20471;-94
2021/10/23 07:25:11;;;;;;;5.67;3.40;;;10.70;99.90;;;;;;5023754;28;20442;-94
2021/10/23 07:27:47;;;;;;;7.87;3.07;;;10.80;99.90;;;;;;5004587;28;20470;-93
2021/10/23 07:30:14;;;;;;;5.20;3.30;;;11.00;99.90;;;;;;5015828;28;20446;-93
2021/10/23 07:32:44;;;;;;;8.00;3.20;;;11.00;99.90;;;;;;5015579;28;20522;-93
2021/10/23 07:35:11;;;;;;;4.50;2.90;;;11.00;99.90;;;;;;5012043;28;20751;-88
2021/10/23 07:37:38;;;;;;;7.57;4.17;;;11.00;99.90;;;;;;5009068;28;20482;-81
2021/10/23 07:40:08;;;;;;;10.50;3.77;;;10.90;99.90;;;;;;5013737;28;20882;-82
2021/10/23 07:42:34;;;;;;;5.93;2.90;;;10.80;99.90;;;;;;5018436;28;20962;-82
2021/10/23 07:45:01;;;;;;;5.60;3.60;;;10.70;99.90;;;;;;5023801;28;20454;-82
2021/10/23 07:47:28;;;;;;;6.57;3.63;;;10.60;99.90;;;;;;5017650;28;20466;-81
2021/10/23 07:49:57;;;;;;;5.80;3.23;;;10.50;99.90;;;;;;5025262;28;20437;-82
2021/10/23 07:52:24;;;;;;;5.70;3.07;;;10.50;99.90;;;;;;5015062;28;20449;-81
2021/10/23 07:54:51;;;;;;;5.20;3.23;;;10.50;99.90;;;;;;5013280;28;20462;-81
2021/10/23 07:57:18;;;;;;;6.27;3.63;;;10.60;99.90;;;;;;5013755;28;20463;-82
2021/10/23 07:59:45;;;;;;;8.03;3.20;;;10.70;99.90;;;;;;5022094;28;20474;-82
2021/10/23 08:02:12;;;;;;;5.50;3.30;;;10.80;99.90;;;;;;5024351;28;20442;-83
2021/10/23 08:04:38;;;;;;;3.17;2.70;;;11.30;99.90;;;;;;5021977;28;20463;-82
2021/10/23 08:07:07;;;;;;;5.00;2.63;;;12.50;99.90;;;;;;5022498;28;20474;-83
2021/10/23 08:09:35;;;;;;;4.90;2.70;;;14.20;99.30;;;;;;5022020;28;20458;-81
2021/10/23 08:12:03;;;;;;;4.97;3.20;;;16.00;95.30;;;;;;5022114;28;20442;-81
2021/10/23 08:14:32;;;;;;;8.90;3.43;;;16.90;91.80;;;;;;5022312;28;20454;-82
2021/10/23 08:16:59;;;;;;;4.97;2.60;;;17.60;88.90;;;;;;5019918;28;21175;-89
2021/10/23 08:19:26;;;;;;;3.93;3.53;;;17.10;87.00;;;;;;5016558;28;20482;-88
2021/10/23 08:21:53;;;;;;;7.50;5.23;;;16.30;87.60;;;;;;5017759;28;20446;-89
2021/10/23 08:24:21;;;;;;;5.53;3.63;;;15.50;89.90;;;;;;5018637;28;20450;-89
2021/10/23 08:26:48;;;;;;;7.07;3.40;;;14.90;90.70;;;;;;5005647;28;20463;-88
2021/10/23 08:29:15;;;;;;;5.23;3.20;;;14.40;91.50;;;;;;4999293;28;20459;-89
2021/10/23 08:31:44;;;;;;;4.03;3.37;;;14.00;92.30;;;;;;4998526;28;20437;-89
2021/10/23 08:34:11;;;;;;;9.07;3.30;;;13.50;93.20;;;;;;4997661;28;20497;-89
2021/10/23 08:36:38;;;;;;;6.07;3.77;;;13.20;94.10;;;;;;4996589;28;20456;-88
2021/10/23 08:39:06;;;;;;;6.17;3.33;;;12.80;94.70;;;;;;5019598;28;20494;-84
2021/10/23 08:41:39;;;;;;;5.90;3.43;;;12.70;95.20;;;;;;5013222;28;20524;-89
2021/10/23 08:44:29;;;;;;;8.73;3.43;;;12.50;95.60;;;;;;5015284;28;20420;-89
2021/10/23 08:47:00;;;;;;;6.37;3.43;;;12.60;95.80;;;;;;5010436;28;20477;-93
2021/10/23 08:49:36;;;;;;;6.43;3.47;;;12.60;96.00;;;;;;5007994;28;20447;-93
2021/10/23 08:52:11;;;;;;;11.87;2.87;;;12.70;96.40;;;;;;5010118;28;20447;-93
2021/10/23 08:54:44;;;;;;;5.10;3.10;;;12.70;96.30;;;;;;5013897;28;20451;-93
2021/10/23 08:57:12;;;;;;;3.90;2.80;;;12.60;96.10;;;;;;5006507;28;20476;-92
2021/10/23 08:59:40;;;;;;;5.67;3.23;;;12.60;96.70;;;;;;5001783;28;20473;-93
2021/10/23 09:02:19;;;;;;;3.50;3.00;;;12.50;96.50;;;;;;5003374;28;20448;-93
2021/10/23 09:04:48;;;;;;;4.43;3.70;;;12.50;96.80;;;;;;4996992;28;20486;-92
2021/10/23 09:07:34;;;;;;;4.37;3.10;;;12.50;97.10;;;;;;4999282;28;20513;-93
2021/10/23 09:10:08;;;;;;;4.43;3.23;;;12.60;96.50;;;;;;5001211;28;20467;-94
2021/10/23 09:15:28;;;;;;;6.00;3.57;;;12.40;96.80;;;;;;4996712;28;20514;-93
2021/10/23 09:18:10;;;;;;;5.60;3.20;;;12.40;96.80;;;;;;5016584;28;20462;-92
2021/10/23 09:20:51;;;;;;;3.73;3.37;;;12.40;97.00;;;;;;5015313;28;20475;-92
2021/10/23 09:23:32;;;;;;;4.27;2.70;;;12.60;96.90;;;;;;5012217;28;20455;-93
2021/10/23 09:26:25;;;;;;;8.80;3.77;;;12.70;96.60;;;;;;5013103;28;20556;-93
2021/10/23 09:29:20;;;;;;;4.90;3.97;;;12.90;96.20;;;;;;5017130;28;20441;-92
2021/10/23 09:31:59;;;;;;;5.37;4.13;;;13.10;95.90;;;;;;5016231;28;20450;-93
2021/10/23 09:34:31;;;;;;;7.63;3.07;;;13.50;95.50;;;;;;5017179;28;20470;-92
2021/10/23 09:37:05;;;;;;;4.43;2.60;;;13.90;94.90;;;;;;5019443;28;20441;-93
2021/10/23 09:39:42;;;;;;;12.87;3.80;;;14.00;94.40;;;;;;5018939;28;20483;-94
2021/10/23 09:42:19;;;;;;;4.20;3.27;;;14.20;94.20;;;;;;5009864;28;20550;-93
2021/10/23 09:45:09;;;;;;;5.17;3.63;;;14.40;93.60;;;;;;5017744;28;20581;-94
2021/10/23 09:47:50;;;;;;;8.73;3.40;;;14.40;92.80;;;;;;5012898;28;20461;-94
2021/10/23 09:50:28;;;;;;;6.00;3.80;;;14.40;93.20;;;;;;5013976;28;20436;-92
2021/10/23 10:01:16;;;;;;;9.47;4.43;;;14.80;92.60;;;;;;5052868;23;20550;-94
2021/10/23 10:03:52;;;;;;;8.50;4.10;;;15.30;91.90;;;;;;5048094;28;20453;-93
2021/10/23 10:06:33;;;;;;;5.67;3.00;;;15.20;90.80;;;;;;5055028;28;20483;-92
2021/10/23 10:09:00;;;;;;;3.63;2.50;;;16.80;90.40;;;;;;5052723;28;20447;-93
2021/10/23 10:11:31;;;;;;;4.73;3.07;;;20.30;82.70;;;;;;5041686;28;20437;-90
2021/10/23 10:13:58;;;;;;;4.90;2.90;;;23.10;70.30;;;;;;5035250;28;20458;-91
2021/10/23 10:16:29;;;;;;;3.27;2.97;;;25.30;62.40;;;;;;5034883;28;20544;-91
2021/10/23 10:18:57;;;;;;;5.23;3.13;;;26.60;55.90;;;;;;5035269;28;20451;-91
2021/10/23 10:21:24;;;;;;;8.60;3.47;;;28.20;52.30;;;;;;5033607;28;20548;-90
2021/10/23 10:24:03;;;;;;;3.17;2.80;;;29.90;47.70;;;;;;5039388;28;20488;-93
2021/10/23 10:32:19;;;;;;;4.20;2.23;;;27.30;45.40;;;;;;5013222;28;20498;-89
2021/10/23 10:35:17;;;;;;;3.83;2.50;;;26.90;46.10;;;;;;5015474;28;20449;-91
2021/10/23 10:38:24;;;;;;;6.30;3.10;;;24.10;48.10;;;;;;5012373;28;20539;-90
2021/10/23 10:44:12;;;;;;;5.60;3.70;;;20.60;56.40;;;;;;5011689;28;20418;-88
2021/10/23 10:47:05;;;;;;;4.60;3.83;;;19.00;61.20;;;;;;5011059;28;20484;-89
2021/10/23 10:49:55;;;;;;;8.13;3.37;;;18.00;65.10;;;;;;5020453;28;20469;-88
2021/10/23 10:53:01;;;;;;;5.63;3.43;;;18.30;69.30;;;;;;5015247;28;20466;-92
2021/10/23 10:55:41;;;;;;;4.90;3.70;;;21.90;63.20;;;;;;5022656;28;20468;-93
2021/10/23 10:58:13;;;;;;;4.67;3.83;;;25.30;56.20;;;;;;5018340;28;20436;-92
2021/10/23 11:01:22;;;;;;;4.23;3.17;;;26.70;51.30;;;;;;5026618;28;20492;-93
2021/10/23 11:04:05;;;;;;;5.00;3.70;;;28.70;48.00;;;;;;5035022;28;20433;-95
2021/10/23 11:06:53;;;;;;;6.33;3.20;;;29.90;44.90;;;;;;5145970;23;20488;-95
2021/10/23 11:09:33;;;;;;;4.77;3.53;;;30.90;42.90;;;;;;5038377;28;20446;-91
2021/10/23 11:18:42;;;;;;;4.60;3.30;;;32.20;37.60;;;;;;5005372;28;20433;-90
2021/10/23 11:21:22;;;;;;;4.33;3.30;;;32.40;37.20;;;;;;5035687;28;20472;-89
2021/10/23 11:24:29;;;;;;;4.60;3.00;;;32.30;36.90;;;;;;5033520;28;20452;-90
2021/10/23 11:26:57;;;;;;;3.67;2.50;;;31.70;36.60;;;;;;5037267;28;20465;-91
2021/10/23 11:29:25;;;;;;;2.37;2.17;;;30.50;37.40;;;;;;5037229;28;20436;-81
2021/10/23 11:31:53;;;;;;;6.73;2.97;;;28.20;39.50;;;;;;5038353;28;20425;-82
2021/10/23 11:34:21;;;;;;;3.90;2.60;;;26.60;41.20;;;;;;5037257;28;20514;-80
2021/10/23 11:36:59;;;;;;;4.57;2.43;;;27.60;41.30;;;;;;5035732;28;20453;-83
2021/10/23 11:39:27;;;;;;;4.47;3.30;;;28.20;40.60;;;;;;5035044;28;20464;-82
2021/10/23 11:42:18;;;;;;;6.43;3.80;;;28.50;39.70;;;;;;5037080;28;20473;-82
2021/10/23 11:44:45;;;;;;;3.63;2.37;;;26.90;41.70;;;;;;5037734;28;20440;-81
2021/10/23 11:47:16;;;;;;;3.53;3.17;;;26.20;43.20;;;;;;5050763;28;20454;-82
2021/10/23 11:49:42;;;;;;;4.80;3.00;;;25.90;43.10;;;;;;5047860;28;20473;-83
2021/10/23 11:52:11;;;;;;;4.60;2.77;;;25.60;43.40;;;;;;5037431;28;20814;-87
2021/10/23 11:54:44;;;;;;;3.67;2.70;;;25.60;42.80;;;;;;5038124;28;20468;-87
2021/10/23 11:57:11;;;;;;;2.60;2.27;;;26.20;42.90;;;;;;5052037;28;20438;-87
2021/10/23 11:59:38;;;;;;;5.83;2.40;;;27.50;40.70;;;;;;5034298;28;20441;-87
2021/10/23 12:02:14;;;;;;;4.13;2.60;;;27.90;38.70;;;;;;5032270;28;20488;-87
2021/10/23 12:04:41;;;;;;;3.97;2.53;;;27.80;39.30;;;;;;5037506;28;20437;-86
2021/10/23 12:07:08;;;;;;;3.23;2.80;;;27.20;39.80;;;;;;5047980;23;20494;-86
2021/10/23 12:09:34;;;;;;;3.00;2.70;;;25.20;41.50;;;;;;5011887;28;20456;-86
2021/10/23 12:12:07;;;;;;;3.00;2.23;;;23.30;44.10;;;;;;5012956;28;20439;-86
2021/10/23 12:14:34;;;;;;;7.40;3.27;;;21.80;46.80;;;;;;5013906;28;20446;-86
2021/10/23 12:17:01;;;;;;;4.60;2.80;;;20.60;48.80;;;;;;5024996;28;20478;-85
2021/10/23 12:19:36;;;;;;;4.13;3.10;;;19.70;51.00;;;;;;5016019;28;20454;-86
2021/10/23 12:22:10;;;;;;;7.27;3.20;;;19.10;52.70;;;;;;5016334;28;20474;-86
2021/10/23 12:24:39;;;;;;;3.30;2.47;;;18.60;53.70;;;;;;5027670;28;20444;-87
2021/10/23 12:27:13;;;;;;;5.97;3.40;;;18.30;54.40;;;;;;5027877;28;20462;-87
2021/10/23 12:29:43;;;;;;;5.30;2.93;;;17.90;54.60;;;;;;5036271;28;20446;-87
2021/10/23 12:32:12;;;;;;;4.50;2.63;;;17.60;55.00;;;;;;5018831;28;20442;-86
2021/10/23 12:34:59;;;;;;;5.03;2.50;;;17.40;55.70;;;;;;5018130;28;20452;-86
2021/10/23 12:37:35;;;;;;;2.57;1.77;;;17.30;55.20;;;;;;5017489;28;20473;-87
2021/10/23 12:40:04;;;;;;;3.67;2.13;;;17.20;54.10;;;;;;5020943;28;20521;-86
2021/10/23 12:42:33;;;;;;;4.17;3.00;;;17.10;53.90;;;;;;5019124;28;20471;-86
2021/10/23 12:45:00;;;;;;;5.77;2.50;;;17.00;54.10;;;;;;5028348;28;20442;-87
2021/10/23 12:47:26;;;;;;;4.30;3.53;;;16.80;55.00;;;;;;5016717;28;20460;-87
2021/10/23 12:49:53;;;;;;;4.23;2.60;;;16.70;56.00;;;;;;5017331;28;20447;-86
2021/10/23 12:52:20;;;;;;;3.70;3.07;;;16.50;57.10;;;;;;5017162;28;20438;-86
2021/10/23 12:54:47;;;;;;;3.03;2.57;;;16.50;57.60;;;;;;5015819;28;20801;-87
2021/10/23 12:57:13;;;;;;;4.23;2.80;;;16.60;57.70;;;;;;5016309;28;20466;-87
2021/10/23 12:59:41;;;;;;;3.93;2.33;;;16.60;57.20;;;;;;5015801;28;20441;-86
2021/10/23 13:02:08;;;;;;;3.77;2.63;;;16.60;57.80;;;;;;5015772;28;20486;-87
2021/10/23 13:04:35;;;;;;;2.90;2.53;;;16.30;57.20;;;;;;5015678;28;20462;-87
2021/10/23 13:07:02;;;;;;;5.10;2.70;;;16.20;57.60;;;;;;5022033;28;20476;-86
2021/10/23 13:09:29;;;;;;;3.43;2.47;;;16.40;58.10;;;;;;5022533;28;20445;-87
2021/10/23 13:11:57;;;;;;;2.47;2.27;;;16.70;57.40;;;;;;5023197;28;20438;-87
2021/10/23 13:14:24;;;;;;;2.20;1.77;;;16.80;56.40;;;;;;5017809;28;20955;-87
2021/10/23 13:16:52;;;;;;;6.10;2.93;;;17.00;55.70;;;;;;5016957;28;20465;-86
2021/10/23 13:19:19;;;;;;;3.83;2.83;;;17.00;55.10;;;;;;5015901;28;20780;-86
2021/10/23 13:21:45;;;;;;;4.60;2.97;;;16.80;55.60;;;;;;5022532;28;20478;-86
2021/10/23 13:24:12;;;;;;;4.13;3.50;;;16.80;55.80;;;;;;5028736;28;20438;-86
2021/10/23 13:26:40;;;;;;;4.17;2.53;;;16.50;57.10;;;;;;5017658;28;20842;-86
2021/10/23 13:29:06;;;;;;;5.20;2.77;;;16.50;57.50;;;;;;5015265;28;20457;-87
2021/10/23 13:31:33;;;;;;;3.67;2.30;;;16.50;57.20;;;;;;5028997;28;20450;-86